Time;durP1;ratioP1;P1;durP2;ratioP2;P2;SDS_P1;SDS_P2;PMS_P1;PMS_P2;Temp;Humidity;BMP_temperature;BMP_pressure;BME280_temperature;BME280_humidity;BME280_pressure;Samples;Min_cycle;Max_cycle;Signal;HPM_P1;HPM_P2
2023/04/08 00:00:45;;;;;;;5.20;4.40;;;;;;;8.72;100.00;100562.69;107106;1260;73686;-49
2023/04/08 00:03:19;;;;;;;;;;;;;;;8.70;100.00;100559.52;106502;1260;60348;-50
2023/04/08 00:05:48;;;;;;;3.90;3.60;;;;;;;8.69;100.00;100553.11;105523;1260;60681;-46
2023/04/08 00:08:16;;;;;;;2.80;2.60;;;;;;;8.68;100.00;100550.63;105239;1255;71954;-48
2023/04/08 00:10:44;;;;;;;3.30;3.00;;;;;;;8.68;100.00;100551.88;105247;1257;67626;-49
2023/04/08 00:13:18;;;;;;;3.80;3.30;;;;;;;8.68;100.00;100550.80;105362;1260;72596;-47
2023/04/08 00:15:47;;;;;;;3.60;2.90;;;;;;;8.69;100.00;100548.80;105181;1257;59985;-52
2023/04/08 00:18:15;;;;;;;4.30;3.90;;;;;;;8.71;100.00;100547.52;106483;1257;60228;-52
2023/04/08 00:20:46;;;;;;;3.70;3.30;;;;;;;-73.31;39.40;40217.97;104219;1257;1004390;-49
2023/04/08 00:23:14;;;;;;;5.60;4.00;;;;;;;-128.00;-1.00;-1.00;103295;1260;1012727;-48
2023/04/08 00:25:42;;;;;;;4.40;4.00;;;;;;;-128.00;-1.00;-1.00;104899;1259;1003099;-49
2023/04/08 00:28:10;;;;;;;3.30;3.00;;;;;;;-128.00;-1.00;-1.00;106197;1256;1002286;-52
2023/04/08 00:30:39;;;;;;;3.70;3.30;;;;;;;-128.00;-1.00;-1.00;102760;1260;1011362;-49
2023/04/08 00:33:07;;;;;;;5.00;4.50;;;;;;;-128.00;-1.00;-1.00;104991;1256;1012362;-52
2023/04/08 00:35:36;;;;;;;3.70;3.40;;;;;;;-128.00;-1.00;-1.00;103883;1257;1012773;-50
2023/04/08 00:38:06;;;;;;;5.30;4.70;;;;;;;-128.00;-1.00;-1.00;103607;1257;1013889;-51
2023/04/08 00:40:34;;;;;;;4.30;4.00;;;;;;;-128.00;-1.00;-1.00;102733;1257;1010357;-49
2023/04/08 00:43:03;;;;;;;4.80;4.40;;;;;;;-128.00;-1.00;-1.00;102745;1260;1010654;-50
2023/04/08 00:45:32;;;;;;;3.90;3.60;;;;;;;-128.00;-1.00;-1.00;105105;1259;1002663;-49
2023/04/08 00:48:02;;;;;;;5.00;3.90;;;;;;;-128.00;-1.00;-1.00;104733;1260;1012668;-50
2023/04/08 00:50:30;;;;;;;3.80;3.60;;;;;;;-128.00;-1.00;-1.00;106324;1257;1012630;-48
2023/04/08 00:53:18;;;;;;;3.40;3.10;;;;;;;-128.00;-1.00;-1.00;106149;1254;1010234;-50
2023/04/08 00:55:46;;;;;;;3.80;3.30;;;;;;;-128.00;-1.00;-1.00;106127;1256;1011994;-49
2023/04/08 00:58:14;;;;;;;3.90;3.60;;;;;;;-128.00;-1.00;-1.00;106254;1256;1002186;-49
2023/04/08 01:00:52;;;;;;;3.80;3.40;;;;;;;-128.00;-1.00;-1.00;106156;1257;1012290;-47
2023/04/08 01:03:31;;;;;;;3.70;3.40;;;;;;;-128.00;-1.00;-1.00;106134;1257;1012130;-48
2023/04/08 01:06:04;;;;;;;4.50;4.00;;;;;;;-128.00;-1.00;-1.00;106170;1257;1010238;-47
2023/04/08 01:08:32;;;;;;;7.90;3.40;;;;;;;-128.00;-1.00;-1.00;105786;1256;1011740;-48
2023/04/08 01:11:01;;;;;;;4.30;4.00;;;;;;;-128.00;-1.00;-1.00;102611;1254;1014507;-51
2023/04/08 01:13:31;;;;;;;3.70;3.20;;;;;;;-128.00;-1.00;-1.00;106152;1255;1012237;-48
2023/04/08 01:16:01;;;;;;;4.20;3.60;;;;;;;-128.00;-1.00;-1.00;106293;1258;1012555;-51
2023/04/08 01:18:30;;;;;;;4.70;4.30;;;;;;;-128.00;-1.00;-1.00;106112;1257;1011145;-49
2023/04/08 01:20:58;;;;;;;6.30;3.00;;;;;;;-128.00;-1.00;-1.00;106345;1254;1002731;-52
2023/04/08 01:23:36;;;;;;;3.20;3.00;;;;;;;-128.00;-1.00;-1.00;103445;1257;1002174;-49
2023/04/08 01:26:04;;;;;;;4.10;3.70;;;;;;;-128.00;-1.00;-1.00;103370;1263;1013201;-49
2023/04/08 01:28:34;;;;;;;5.00;4.60;;;;;;;-128.00;-1.00;-1.00;102778;1256;1012144;-49
2023/04/08 01:31:02;;;;;;;4.40;3.50;;;;;;;-128.00;-1.00;-1.00;102411;1257;1011133;-50
2023/04/08 01:33:30;;;;;;;4.20;3.90;;;;;;;-128.00;-1.00;-1.00;102811;1263;1002515;-51
2023/04/08 01:36:01;;;;;;;6.90;4.20;;;;;;;-128.00;-1.00;-1.00;102524;1257;1013115;-50
2023/04/08 01:38:30;;;;;;;4.20;3.80;;;;;;;-128.00;-1.00;-1.00;102476;1263;1013117;-52
2023/04/08 01:40:59;;;;;;;5.10;4.40;;;;;;;-128.00;-1.00;-1.00;103250;1257;1013477;-48
2023/04/08 01:43:31;;;;;;;6.40;4.20;;;;;;;-128.00;-1.00;-1.00;103408;1260;1010018;-48
2023/04/08 01:45:59;;;;;;;3.70;3.40;;;;;;;-128.00;-1.00;-1.00;102585;1263;1010381;-50
2023/04/08 01:48:27;;;;;;;4.90;4.40;;;;;;;-128.00;-1.00;-1.00;103297;1260;1013672;-53
2023/04/08 01:50:56;;;;;;;5.20;3.80;;;;;;;-128.00;-1.00;-1.00;103544;1260;1012623;-51
2023/04/08 01:53:25;;;;;;;6.00;5.20;;;;;;;-128.00;-1.00;-1.00;102977;1263;1013423;-51
2023/04/08 01:55:57;;;;;;;5.80;5.20;;;;;;;-128.00;-1.00;-1.00;103319;1260;1010251;-51
2023/04/08 01:58:25;;;;;;;4.40;4.00;;;;;;;-128.00;-1.00;-1.00;103398;1257;1011688;-51
2023/04/08 02:00:53;;;;;;;4.70;4.40;;;;;;;-128.00;-1.00;-1.00;102595;1260;1002727;-51
2023/04/08 02:03:22;;;;;;;6.40;4.50;;;;;;;-128.00;-1.00;-1.00;102613;1260;1012203;-51
2023/04/08 02:05:51;;;;;;;5.20;4.60;;;;;;;-128.00;-1.00;-1.00;102658;1262;1013050;-52
2023/04/08 02:08:19;;;;;;;6.00;5.20;;;;;;;-128.00;-1.00;-1.00;102836;1257;1002350;-51
2023/04/08 02:10:47;;;;;;;7.20;5.30;;;;;;;-128.00;-1.00;-1.00;103092;1260;1011498;-51
2023/04/08 02:13:15;;;;;;;5.20;4.70;;;;;;;-128.00;-1.00;-1.00;102672;1260;1003575;-52
2023/04/08 02:15:47;;;;;;;5.20;4.80;;;;;;;-128.00;-1.00;-1.00;102689;1263;1002835;-51
2023/04/08 02:18:24;;;;;;;6.30;5.50;;;;;;;-128.00;-1.00;-1.00;102808;1257;1012443;-49
2023/04/08 02:21:05;;;;;;;7.40;5.40;;;;;;;-128.00;-1.00;-1.00;102779;1260;1010207;-51
2023/04/08 02:23:37;;;;;;;6.30;4.40;;;;;;;-128.00;-1.00;-1.00;102670;1258;1010823;-53
2023/04/08 02:26:13;;;;;;;5.60;5.10;;;;;;;-128.00;-1.00;-1.00;102780;1260;1013187;-53
2023/04/08 02:28:40;;;;;;;6.00;4.50;;;;;;;-128.00;-1.00;-1.00;103050;1257;1012483;-52
2023/04/08 02:31:13;;;;;;;8.80;5.20;;;;;;;-128.00;-1.00;-1.00;102870;1261;1013625;-52
2023/04/08 02:33:45;;;;;;;4.90;4.60;;;;;;;-128.00;-1.00;-1.00;103168;1264;1010848;-52
2023/04/08 02:36:12;;;;;;;5.40;5.00;;;;;;;-128.00;-1.00;-1.00;102675;1257;1004248;-53
2023/04/08 02:38:47;;;;;;;6.50;4.80;;;;;;;-128.00;-1.00;-1.00;102741;1260;1013026;-53
2023/04/08 02:41:18;;;;;;;5.80;5.20;;;;;;;-128.00;-1.00;-1.00;103277;1263;1012553;-53
2023/04/08 02:43:47;;;;;;;5.10;4.70;;;;;;;-128.00;-1.00;-1.00;102744;1257;1013077;-53
2023/04/08 02:46:18;;;;;;;4.70;4.20;;;;;;;-128.00;-1.00;-1.00;102596;1260;1011278;-52
2023/04/08 02:48:47;;;;;;;4.50;4.20;;;;;;;-128.00;-1.00;-1.00;103319;1261;1002898;-51
2023/04/08 02:51:15;;;;;;;5.10;4.60;;;;;;;-128.00;-1.00;-1.00;102689;1257;1014449;-51
2023/04/08 02:53:46;;;;;;;7.40;5.90;;;;;;;-128.00;-1.00;-1.00;103075;1263;1012034;-53
2023/04/08 02:56:14;;;;;;;5.90;5.40;;;;;;;-128.00;-1.00;-1.00;103846;1261;1012932;-52
2023/04/08 02:58:43;;;;;;;4.10;3.80;;;;;;;-128.00;-1.00;-1.00;102957;1257;1010141;-52
2023/04/08 03:01:10;;;;;;;5.30;4.90;;;;;;;-128.00;-1.00;-1.00;102934;1260;1003072;-49
2023/04/08 03:03:44;;;;;;;5.80;5.30;;;;;;;-128.00;-1.00;-1.00;102576;1257;1013462;-51
2023/04/08 03:06:12;;;;;;;4.80;4.30;;;;;;;-128.00;-1.00;-1.00;102730;1257;1012033;-49
2023/04/08 03:08:40;;;;;;;5.50;5.00;;;;;;;-128.00;-1.00;-1.00;102956;1257;1002947;-53
2023/04/08 03:11:10;;;;;;;6.40;5.80;;;;;;;-128.00;-1.00;-1.00;102622;1258;1010509;-52
2023/04/08 03:13:38;;;;;;;5.20;4.20;;;;;;;-128.00;-1.00;-1.00;102645;1258;1002781;-52
2023/04/08 03:16:09;;;;;;;5.90;5.40;;;;;;;-128.00;-1.00;-1.00;102667;1257;1015080;-52
2023/04/08 03:18:39;;;;;;;6.60;5.20;;;;;;;-128.00;-1.00;-1.00;103272;1257;1012910;-50
2023/04/08 03:21:07;;;;;;;8.10;5.70;;;;;;;-128.00;-1.00;-1.00;102635;1257;1013535;-52
2023/04/08 03:23:35;;;;;;;9.00;5.30;;;;;;;-128.00;-1.00;-1.00;102658;1260;1002655;-50
2023/04/08 03:26:03;;;;;;;8.40;6.20;;;;;;;-128.00;-1.00;-1.00;102617;1260;1002541;-52
2023/04/08 03:28:31;;;;;;;6.70;6.10;;;;;;;-128.00;-1.00;-1.00;104421;1257;1002682;-51
2023/04/08 03:31:02;;;;;;;6.60;6.00;;;;;;;-128.00;-1.00;-1.00;104505;1257;1012845;-52
2023/04/08 03:33:31;;;;;;;6.90;6.20;;;;;;;-128.00;-1.00;-1.00;102769;1257;1012541;-49
2023/04/08 03:35:59;;;;;;;6.10;5.60;;;;;;;-128.00;-1.00;-1.00;106233;1256;1010279;-52
2023/04/08 03:38:28;;;;;;;6.10;5.60;;;;;;;-128.00;-1.00;-1.00;106287;1255;1010835;-53
2023/04/08 03:40:56;;;;;;;6.10;5.50;;;;;;;-128.00;-1.00;-1.00;106276;1256;1002647;-52
2023/04/08 03:43:25;;;;;;;6.50;5.90;;;;;;;-128.00;-1.00;-1.00;106296;1257;1012770;-53
2023/04/08 03:45:53;;;;;;;6.30;5.90;;;;;;;-128.00;-1.00;-1.00;106276;1258;1002112;-53
2023/04/08 03:48:21;;;;;;;11.50;5.70;;;;;;;-128.00;-1.00;-1.00;103564;1257;1010643;-52
2023/04/08 03:50:50;;;;;;;7.80;7.20;;;;;;;-128.00;-1.00;-1.00;102736;1256;1010714;-53
2023/04/08 03:53:18;;;;;;;7.60;7.00;;;;;;;-128.00;-1.00;-1.00;102804;1257;1012345;-53
2023/04/08 03:55:49;;;;;;;7.10;6.50;;;;;;;-128.00;-1.00;-1.00;106284;1257;1002766;-52
2023/04/08 03:58:18;;;;;;;7.30;6.60;;;;;;;-128.00;-1.00;-1.00;106314;1256;1013320;-52
2023/04/08 04:00:46;;;;;;;5.90;5.40;;;;;;;-128.00;-1.00;-1.00;106312;1254;1002153;-52
2023/04/08 04:03:14;;;;;;;7.10;6.50;;;;;;;-128.00;-1.00;-1.00;106279;1254;1012133;-52
2023/04/08 04:05:44;;;;;;;6.50;6.10;;;;;;;-128.00;-1.00;-1.00;106317;1257;1013460;-52
2023/04/08 04:08:12;;;;;;;7.90;7.10;;;;;;;-128.00;-1.00;-1.00;106292;1259;1002690;-52
2023/04/08 04:10:40;;;;;;;8.10;7.30;;;;;;;-128.00;-1.00;-1.00;106300;1256;1013016;-52
2023/04/08 04:13:08;;;;;;;6.80;6.30;;;;;;;-128.00;-1.00;-1.00;106291;1254;1003016;-52
2023/04/08 04:15:39;;;;;;;7.00;6.30;;;;;;;-128.00;-1.00;-1.00;106264;1254;1002368;-52
2023/04/08 04:18:07;;;;;;;6.80;6.00;;;;;;;-128.00;-1.00;-1.00;106309;1256;1012807;-51
2023/04/08 04:20:39;;;;;;;7.40;6.20;;;;;;;-128.00;-1.00;-1.00;106286;1256;1013063;-52
2023/04/08 04:23:07;;;;;;;7.10;6.50;;;;;;;-128.00;-1.00;-1.00;106317;1256;1013586;-53
2023/04/08 04:25:38;;;;;;;6.90;5.60;;;;;;;-128.00;-1.00;-1.00;106295;1259;1010089;-53
2023/04/08 04:28:07;;;;;;;6.80;6.20;;;;;;;-128.00;-1.00;-1.00;105987;1256;1011067;-49
2023/04/08 04:30:39;;;;;;;8.20;6.50;;;;;;;-128.00;-1.00;-1.00;102803;1257;1013495;-52
2023/04/08 04:33:07;;;;;;;9.60;6.50;;;;;;;-128.00;-1.00;-1.00;103104;1260;1011983;-52
2023/04/08 04:35:35;;;;;;;7.20;6.50;;;;;;;-128.00;-1.00;-1.00;103138;1256;1003463;-51
2023/04/08 04:38:04;;;;;;;8.30;7.50;;;;;;;-128.00;-1.00;-1.00;102671;1260;1003250;-51
2023/04/08 04:40:33;;;;;;;7.00;6.50;;;;;;;-128.00;-1.00;-1.00;102781;1259;1011154;-53
2023/04/08 04:43:01;;;;;;;8.10;6.60;;;;;;;-128.00;-1.00;-1.00;102783;1260;1013329;-48
2023/04/08 04:45:30;;;;;;;7.50;6.20;;;;;;;-128.00;-1.00;-1.00;102881;1260;1012566;-51
2023/04/08 04:47:58;;;;;;;6.90;6.30;;;;;;;-128.00;-1.00;-1.00;103868;1259;1002745;-52
2023/04/08 04:50:26;;;;;;;8.50;7.80;;;;;;;-128.00;-1.00;-1.00;102791;1257;1002648;-49
2023/04/08 04:53:02;;;;;;;7.20;6.60;;;;;;;-128.00;-1.00;-1.00;102971;1256;1011026;-52
2023/04/08 04:55:30;;;;;;;7.60;6.90;;;;;;;-128.00;-1.00;-1.00;103388;1256;1013081;-53
2023/04/08 04:57:59;;;;;;;9.20;7.20;;;;;;;-128.00;-1.00;-1.00;103664;1257;1002500;-51
2023/04/08 05:00:27;;;;;;;7.70;6.80;;;;;;;-128.00;-1.00;-1.00;103115;1260;1013091;-54
2023/04/08 05:02:56;;;;;;;8.90;8.10;;;;;;;-128.00;-1.00;-1.00;104301;1260;1010185;-53
2023/04/08 05:05:25;;;;;;;7.80;7.00;;;;;;;-128.00;-1.00;-1.00;103014;1257;1011277;-50
2023/04/08 05:07:55;;;;;;;7.80;7.10;;;;;;;-128.00;-1.00;-1.00;102347;1257;1015285;-52
2023/04/08 05:10:23;;;;;;;7.90;6.90;;;;;;;-128.00;-1.00;-1.00;102691;1256;1012945;-49
2023/04/08 05:12:57;;;;;;;8.40;7.50;;;;;;;-128.00;-1.00;-1.00;102804;1257;1013141;-52
2023/04/08 05:15:26;;;;;;;7.10;6.50;;;;;;;-128.00;-1.00;-1.00;103835;1260;1009829;-51
2023/04/08 05:17:54;;;;;;;8.40;6.90;;;;;;;-128.00;-1.00;-1.00;102894;1257;1003624;-49
2023/04/08 05:20:22;;;;;;;9.30;8.30;;;;;;;-128.00;-1.00;-1.00;102872;1256;1013770;-51
2023/04/08 05:22:53;;;;;;;9.90;6.90;;;;;;;-128.00;-1.00;-1.00;103003;1260;1012887;-52
2023/04/08 05:25:21;;;;;;;8.80;7.90;;;;;;;-128.00;-1.00;-1.00;102916;1259;1002646;-53
2023/04/08 05:27:49;;;;;;;12.80;8.40;;;;;;;-128.00;-1.00;-1.00;102846;1258;1002869;-52
2023/04/08 05:30:17;;;;;;;8.60;7.80;;;;;;;-128.00;-1.00;-1.00;103023;1257;1003806;-53
2023/04/08 05:32:46;;;;;;;10.00;8.50;;;;;;;-128.00;-1.00;-1.00;102818;1256;1013167;-52
2023/04/08 05:35:14;;;;;;;8.80;7.90;;;;;;;-128.00;-1.00;-1.00;103619;1257;1002856;-53
2023/04/08 05:37:42;;;;;;;14.60;10.00;;;;;;;-128.00;-1.00;-1.00;102903;1256;1014430;-49
2023/04/08 05:40:10;;;;;;;12.80;8.90;;;;;;;-128.00;-1.00;-1.00;102856;1260;1003095;-53
2023/04/08 05:42:41;;;;;;;11.10;9.40;;;;;;;-128.00;-1.00;-1.00;102323;1260;1011725;-51
2023/04/08 05:45:10;;;;;;;24.10;12.20;;;;;;;-128.00;-1.00;-1.00;102055;1256;1012376;-50
2023/04/08 05:47:38;;;;;;;17.00;11.80;;;;;;;-128.00;-1.00;-1.00;102785;1257;1012576;-53
2023/04/08 05:50:06;;;;;;;23.30;13.80;;;;;;;-128.00;-1.00;-1.00;102676;1259;1005221;-52
2023/04/08 05:52:35;;;;;;;19.10;14.30;;;;;;;-128.00;-1.00;-1.00;104065;1260;1009647;-52
2023/04/08 05:55:04;;;;;;;21.40;14.60;;;;;;;-128.00;-1.00;-1.00;102422;1258;1002940;-49
2023/04/08 05:57:33;;;;;;;20.30;14.40;;;;;;;-128.00;-1.00;-1.00;102426;1260;1012099;-52
2023/04/08 06:00:02;;;;;;;23.10;15.10;;;;;;;-128.00;-1.00;-1.00;102690;1257;1002868;-50
2023/04/08 06:02:35;;;;;;;20.40;15.40;;;;;;;-128.00;-1.00;-1.00;102520;1256;1013025;-52
2023/04/08 06:05:04;;;;;;;24.90;15.30;;;;;;;-128.00;-1.00;-1.00;103067;1257;1010646;-50
2023/04/08 06:07:33;;;;;;;24.80;17.00;;;;;;;-128.00;-1.00;-1.00;103445;1257;1011694;-51
2023/04/08 06:10:01;;;;;;;28.50;18.50;;;;;;;-128.00;-1.00;-1.00;103353;1259;1012561;-49
2023/04/08 06:12:29;;;;;;;26.70;18.10;;;;;;;-128.00;-1.00;-1.00;102763;1257;1013344;-50
2023/04/08 06:14:58;;;;;;;20.50;17.40;;;;;;;-128.00;-1.00;-1.00;102730;1257;1013640;-50
2023/04/08 06:17:26;;;;;;;24.90;17.90;;;;;;;-128.00;-1.00;-1.00;102778;1259;1004797;-51
2023/04/08 06:19:54;;;;;;;28.80;20.30;;;;;;;-128.00;-1.00;-1.00;102649;1260;1010496;-49
2023/04/08 06:22:22;;;;;;;29.20;21.50;;;;;;;-128.00;-1.00;-1.00;102519;1260;1003129;-51
2023/04/08 06:24:50;;;;;;;29.30;21.90;;;;;;;-128.00;-1.00;-1.00;102765;1258;1003303;-52
2023/04/08 06:27:18;;;;;;;28.00;20.80;;;;;;;-128.00;-1.00;-1.00;105969;1257;1012820;-53
2023/04/08 06:29:46;;;;;;;31.50;22.60;;;;;;;-128.00;-1.00;-1.00;103014;1260;1002986;-51
2023/04/08 06:32:14;;;;;;;27.80;20.90;;;;;;;-128.00;-1.00;-1.00;102821;1257;1003357;-48
2023/04/08 06:34:44;;;;;;;26.50;18.90;;;;;;;-128.00;-1.00;-1.00;102953;1260;1013461;-48
2023/04/08 06:37:13;;;;;;;29.30;20.50;;;;;;;-128.00;-1.00;-1.00;102673;1261;1012775;-50
2023/04/08 06:39:41;;;;;;;33.00;21.50;;;;;;;-128.00;-1.00;-1.00;106273;1257;1003154;-53
2023/04/08 06:42:10;;;;;;;28.70;20.20;;;;;;;-128.00;-1.00;-1.00;106159;1256;1002795;-53
2023/04/08 06:44:45;;;;;;;22.50;17.40;;;;;;;-128.00;-1.00;-1.00;103884;1260;1011259;-52
2023/04/08 06:47:13;;;;;;;23.00;17.00;;;;;;;-128.00;-1.00;-1.00;102704;1257;1003650;-52
2023/04/08 06:49:41;;;;;;;23.70;17.70;;;;;;;-128.00;-1.00;-1.00;102797;1257;1002741;-50
2023/04/08 06:52:09;;;;;;;22.90;18.30;;;;;;;-128.00;-1.00;-1.00;102640;1257;1012409;-51
2023/04/08 06:54:42;;;;;;;24.10;18.80;;;;;;;-128.00;-1.00;-1.00;102208;1257;1009962;-52
2023/04/08 06:57:10;;;;;;;21.60;17.10;;;;;;;-128.00;-1.00;-1.00;102436;1260;1011263;-51
2023/04/08 06:59:38;;;;;;;20.60;16.90;;;;;;;-128.00;-1.00;-1.00;106277;1256;1002322;-53
2023/04/08 07:02:06;;;;;;;23.50;17.60;;;;;;;-128.00;-1.00;-1.00;106259;1257;1002557;-53
2023/04/08 07:04:34;;;;;;;18.60;15.60;;;;;;;-128.00;-1.00;-1.00;106341;1256;1012992;-53
2023/04/08 07:07:03;;;;;;;23.50;15.70;;;;;;;-128.00;-1.00;-1.00;106265;1256;1002702;-53
2023/04/08 07:09:31;;;;;;;20.20;16.60;;;;;;;-128.00;-1.00;-1.00;106277;1257;1011694;-53
2023/04/08 07:12:03;;;;;;;20.00;15.80;;;;;;;-128.00;-1.00;-1.00;105961;1258;1012773;-53
2023/04/08 07:14:32;;;;;;;18.10;15.80;;;;;;;-128.00;-1.00;-1.00;106338;1256;1012707;-53
2023/04/08 07:17:04;;;;;;;15.50;13.60;;;;;;;-128.00;-1.00;-1.00;106108;1257;1012582;-53
2023/04/08 07:19:33;;;;;;;17.60;12.90;;;;;;;-128.00;-1.00;-1.00;106125;1256;1010922;-53
2023/04/08 07:22:01;;;;;;;20.20;13.10;;;;;;;-128.00;-1.00;-1.00;106137;1254;1002415;-53
2023/04/08 07:24:29;;;;;;;15.70;11.90;;;;;;;-128.00;-1.00;-1.00;106266;1255;1012510;-53
2023/04/08 07:26:57;;;;;;;13.60;10.90;;;;;;;-128.00;-1.00;-1.00;106167;1258;1002221;-52
2023/04/08 07:29:27;;;;;;;14.20;10.50;;;;;;;-128.00;-1.00;-1.00;106141;1254;1012180;-50
2023/04/08 07:31:55;;;;;;;13.80;10.00;;;;;;;-128.00;-1.00;-1.00;106066;1256;1003505;-52
2023/04/08 07:34:23;;;;;;;11.30;9.40;;;;;;;-128.00;-1.00;-1.00;103133;1254;1002912;-52
2023/04/08 07:36:51;;;;;;;9.80;8.20;;;;;;;-128.00;-1.00;-1.00;102852;1261;1012947;-51
2023/04/08 07:39:19;;;;;;;10.20;5.90;;;;;;;-128.00;-1.00;-1.00;102712;1257;1002625;-52
2023/04/08 07:41:47;;;;;;;9.50;5.50;;;;;;;-128.00;-1.00;-1.00;102695;1255;1002856;-50
2023/04/08 07:44:16;;;;;;;8.70;4.90;;;;;;;-128.00;-1.00;-1.00;103228;1260;1010972;-52
2023/04/08 07:46:45;;;;;;;8.00;5.00;;;;;;;-128.00;-1.00;-1.00;103294;1256;1011251;-48
2023/04/08 07:49:13;;;;;;;9.00;4.60;;;;;;;-128.00;-1.00;-1.00;106263;1255;1012577;-52
2023/04/08 07:51:40;;;;;;;8.10;4.00;;;;;;;-128.00;-1.00;-1.00;104482;1256;1002293;-51
2023/04/08 07:54:11;;;;;;;9.40;5.70;;;;;;;-128.00;-1.00;-1.00;103342;1260;1013502;-51
2023/04/08 07:56:39;;;;;;;6.90;4.70;;;;;;;-128.00;-1.00;-1.00;103385;1260;1010829;-53
2023/04/08 07:59:10;;;;;;;7.70;4.60;;;;;;;-128.00;-1.00;-1.00;102601;1257;1011236;-51
2023/04/08 08:01:39;;;;;;;8.50;4.00;;;;;;;-128.00;-1.00;-1.00;102250;1256;1013705;-53
2023/04/08 08:04:07;;;;;;;6.00;3.70;;;;;;;-128.00;-1.00;-1.00;102692;1256;1012836;-54
2023/04/08 08:06:39;;;;;;;4.10;2.30;;;;;;;-128.00;-1.00;-1.00;103862;1259;1012807;-51
2023/04/08 08:09:08;;;;;;;6.40;2.40;;;;;;;-128.00;-1.00;-1.00;102774;1260;1011233;-50
2023/04/08 08:11:36;;;;;;;7.60;2.90;;;;;;;-128.00;-1.00;-1.00;102727;1257;1011786;-51
2023/04/08 08:14:06;;;;;;;6.30;3.50;;;;;;;-128.00;-1.00;-1.00;103345;1257;1012593;-52
2023/04/08 08:16:37;;;;;;;4.20;2.40;;;;;;;-128.00;-1.00;-1.00;102535;1257;1012137;-45
2023/04/08 08:19:06;;;;;;;7.40;2.90;;;;;;;-128.00;-1.00;-1.00;102731;1260;1013197;-51
2023/04/08 08:21:40;;;;;;;10.70;3.00;;;;;;;-128.00;-1.00;-1.00;104522;1262;1010496;-47
2023/04/08 08:24:08;;;;;;;9.50;3.10;;;;;;;-128.00;-1.00;-1.00;102741;1257;1002826;-51
2023/04/08 08:26:36;;;;;;;6.20;2.00;;;;;;;-128.00;-1.00;-1.00;103096;1256;1002564;-51
2023/04/08 08:29:07;;;;;;;5.20;2.80;;;;;;;-128.00;-1.00;-1.00;102664;1257;1012494;-52
2023/04/08 08:31:35;;;;;;;7.00;2.80;;;;;;;-128.00;-1.00;-1.00;103203;1259;1013917;-47
2023/04/08 08:34:04;;;;;;;5.30;3.20;;;;;;;-128.00;-1.00;-1.00;102757;1257;1003062;-48
2023/04/08 08:36:33;;;;;;;7.80;2.60;;;;;;;-128.00;-1.00;-1.00;102335;1261;1011164;-49
2023/04/08 08:39:02;;;;;;;6.50;2.90;;;;;;;-128.00;-1.00;-1.00;103871;1258;1013067;-50
2023/04/08 08:41:35;;;;;;;5.00;1.70;;;;;;;-128.00;-1.00;-1.00;103212;1257;1012665;-49
2023/04/08 08:44:07;;;;;;;8.90;4.00;;;;;;;-128.00;-1.00;-1.00;106168;1256;1012698;-51
2023/04/08 08:46:34;;;;;;;7.40;3.30;;;;;;;-128.00;-1.00;-1.00;103016;1257;1010045;-51
2023/04/08 08:49:03;;;;;;;6.60;2.80;;;;;;;-128.00;-1.00;-1.00;103022;1258;1011298;-50
2023/04/08 08:51:31;;;;;;;12.40;3.70;;;;;;;-128.00;-1.00;-1.00;102788;1256;1003078;-50
2023/04/08 08:54:03;;;;;;;6.40;3.90;;;;;;;-128.00;-1.00;-1.00;103659;1258;1012432;-49
2023/04/08 08:56:34;;;;;;;8.70;3.70;;;;;;;-128.00;-1.00;-1.00;102866;1257;1013476;-49
2023/04/08 08:59:03;;;;;;;8.70;5.00;;;;;;;-128.00;-1.00;-1.00;102899;1260;1010807;-52
2023/04/08 09:01:32;;;;;;;8.10;5.90;;;;;;;-128.00;-1.00;-1.00;102852;1258;1011493;-48
2023/04/08 09:04:18;;;;;;;9.30;5.70;;;;;;;-128.00;-1.00;-1.00;103380;1256;1012008;-48
2023/04/08 09:07:07;;;;;;;14.40;5.50;;;;;;;-128.00;-1.00;-1.00;103469;1257;1012416;-50
2023/04/08 09:09:49;;;;;;;6.90;4.50;;;;;;;-128.00;-1.00;-1.00;102813;1260;1013604;-50
2023/04/08 09:12:22;;;;;;;8.80;4.90;;;;;;;-128.00;-1.00;-1.00;104600;1259;1010179;-51
2023/04/08 09:14:51;;;;;;;7.30;3.80;;;;;;;-128.00;-1.00;-1.00;103750;1257;1011493;-52
2023/04/08 09:17:49;;;;;;;7.60;3.50;;;;;;;-128.00;-1.00;-1.00;102619;1262;1012841;-50
2023/04/08 09:20:21;;;;;;;11.80;3.50;;;;;;;-128.00;-1.00;-1.00;102771;1260;1012563;-50
2023/04/08 09:22:59;;;;;;;16.20;3.10;;;;;;;-128.00;-1.00;-1.00;103183;1259;1002771;-50
2023/04/08 09:25:31;;;;;;;6.40;2.20;;;;;;;-128.00;-1.00;-1.00;103295;1257;1010718;-51
2023/04/08 09:28:01;;;;;;;8.90;2.00;;;;;;;-128.00;-1.00;-1.00;103210;1256;1011219;-50
2023/04/08 09:30:30;;;;;;;7.40;2.10;;;;;;;-128.00;-1.00;-1.00;102931;1257;1013557;-51
2023/04/08 09:33:06;;;;;;;11.90;2.50;;;;;;;-128.00;-1.00;-1.00;102459;1257;1012642;-49
2023/04/08 09:35:35;;;;;;;6.20;1.80;;;;;;;-128.00;-1.00;-1.00;102624;1260;1012818;-49
2023/04/08 09:38:03;;;;;;;8.50;2.10;;;;;;;-128.00;-1.00;-1.00;102709;1256;1011033;-50
2023/04/08 09:40:37;;;;;;;11.10;2.90;;;;;;;-128.00;-1.00;-1.00;103818;1257;1002996;-49
2023/04/08 09:43:05;;;;;;;9.00;2.60;;;;;;;-128.00;-1.00;-1.00;102517;1257;1013169;-52
2023/04/08 09:45:33;;;;;;;7.00;2.30;;;;;;;-128.00;-1.00;-1.00;102901;1260;1012286;-53
2023/04/08 09:49:12;;;;;;;15.60;2.50;;;;;;;14.79;100.00;100948.10;101850;1294;600735;-48
2023/04/08 09:52:14;;;;;;;5.00;1.50;;;;;;;14.83;100.00;100976.28;104403;1270;59970;-51
2023/04/08 09:54:57;;;;;;;10.90;1.80;;;;;;;14.93;100.00;100962.23;105804;1263;58927;-50
2023/04/08 09:57:42;;;;;;;13.00;2.10;;;;;;;15.06;100.00;100953.48;104606;1264;73544;-52
2023/04/08 10:00:12;;;;;;;15.60;2.50;;;;;;;15.19;100.00;100948.16;104616;1264;67589;-53
2023/04/08 10:02:55;;;;;;;;;;;;;;;15.30;100.00;100945.63;106860;1264;169295;-49
2023/04/08 10:05:24;;;;;;;9.70;1.40;;;;;;;15.43;100.00;100944.24;104909;1263;60124;-51
2023/04/08 10:07:55;;;;;;;5.60;1.50;;;;;;;15.55;100.00;100941.00;104496;1262;59381;-51
2023/04/08 10:10:23;;;;;;;7.80;1.50;;;;;;;15.66;100.00;100950.23;108479;1262;71977;-53
2023/04/08 10:12:56;;;;;;;10.20;1.80;;;;;;;15.66;100.00;100946.92;108582;1262;65840;-50
2023/04/08 10:15:29;;;;;;;10.60;1.60;;;;;;;15.58;100.00;100936.84;108320;1265;70186;-49
2023/04/08 10:18:04;;;;;;;4.60;1.00;;;;;;;15.53;100.00;100936.70;108447;1262;60504;-49
2023/04/08 10:20:33;;;;;;;7.70;1.20;;;;;;;15.50;100.00;100928.38;108574;1262;60853;-49
2023/04/08 10:23:02;;;;;;;11.20;1.40;;;;;;;15.47;100.00;100924.32;108555;1262;72270;-48
2023/04/08 10:25:31;;;;;;;10.50;1.00;;;;;;;15.51;100.00;100923.43;108597;1262;65770;-48
2023/04/08 10:28:22;;;;;;;8.70;1.10;;;;;;;15.56;100.00;100923.77;106919;1262;72525;-47
2023/04/08 10:30:51;;;;;;;10.40;1.00;;;;;;;15.61;100.00;100930.77;104923;1267;60305;-50
2023/04/08 10:33:28;;;;;;;5.80;1.10;;;;;;;15.62;100.00;100926.88;104691;1264;59739;-50
2023/04/08 10:36:08;;;;;;;4.50;0.90;;;;;;;15.65;100.00;100921.67;104957;1267;72250;-51
2023/04/08 10:38:38;;;;;;;6.40;1.40;;;;;;;15.71;100.00;100926.27;108527;1262;66048;-53
2023/04/08 10:41:06;;;;;;;9.00;1.20;;;;;;;15.75;100.00;100922.20;108594;1262;73888;-50
2023/04/08 10:43:35;;;;;;;4.40;1.20;;;;;;;15.75;100.00;100920.60;108614;1262;60645;-49
2023/04/08 10:46:05;;;;;;;11.00;1.10;;;;;;;15.68;100.00;100920.75;108578;1262;61528;-51
2023/04/08 10:48:34;;;;;;;5.30;1.60;;;;;;;15.67;100.00;100915.41;108406;1262;73377;-51
2023/04/08 10:51:03;;;;;;;5.50;1.10;;;;;;;15.64;100.00;100911.73;108144;1266;66926;-50
2023/04/08 10:53:33;;;;;;;8.10;1.30;;;;;;;15.60;100.00;100904.93;105375;1262;72422;-50
2023/04/08 10:56:15;;;;;;;5.10;1.00;;;;;;;15.61;100.00;100903.95;105859;1263;61714;-48
2023/04/08 10:58:48;;;;;;;7.30;0.80;;;;;;;15.66;100.00;100906.96;106389;1262;60227;-49
2023/04/08 11:01:18;;;;;;;5.50;0.70;;;;;;;15.70;100.00;100901.33;104973;1267;73284;-50
2023/04/08 11:03:46;;;;;;;5.00;0.90;;;;;;;15.73;100.00;100895.73;104953;1264;65030;-50
2023/04/08 11:06:14;;;;;;;4.10;1.20;;;;;;;15.77;100.00;100898.77;104952;1262;72864;-49
2023/04/08 11:08:43;;;;;;;12.10;1.20;;;;;;;15.80;100.00;100897.89;108464;1262;61200;-50
2023/04/08 11:11:11;;;;;;;5.70;0.70;;;;;;;15.81;100.00;100887.37;105321;1262;60473;-50
2023/04/08 11:13:44;;;;;;;6.50;0.90;;;;;;;15.81;100.00;100880.45;104882;1262;73586;-49
2023/04/08 11:16:21;;;;;;;4.30;0.90;;;;;;;15.82;100.00;100880.23;108537;1261;67351;-51
2023/04/08 11:18:49;;;;;;;3.70;0.70;;;;;;;15.82;100.00;100874.80;108744;1258;70573;-50
2023/04/08 11:21:17;;;;;;;8.40;0.90;;;;;;;15.83;100.00;100866.78;105160;1258;59722;-49
2023/04/08 11:23:48;;;;;;;2.60;0.70;;;;;;;15.86;100.00;100865.16;105373;1258;59766;-51
2023/04/08 11:26:18;;;;;;;3.10;0.80;;;;;;;15.91;100.00;100868.02;105151;1261;71266;-52